sensor_id;sensor_type;location;lat;lon;timestamp;P1;durP1;ratioP1;P2;durP2;ratioP2
81242;SDS011;70716;50.074;14.496;2023-09-19T00:01:05;1.65;;;0.70;;
81242;SDS011;70716;50.074;14.496;2023-09-19T00:03:35;2.50;;;0.70;;
81242;SDS011;70716;50.074;14.496;2023-09-19T00:06:02;1.45;;;0.90;;
81242;SDS011;70716;50.074;14.496;2023-09-19T00:08:30;2.30;;;0.50;;
81242;SDS011;70716;50.074;14.496;2023-09-19T00:10:58;2.08;;;1.00;;
81242;SDS011;70716;50.074;14.496;2023-09-19T00:13:30;1.15;;;0.63;;
81242;SDS011;70716;50.074;14.496;2023-09-19T00:16:01;1.25;;;0.60;;
81242;SDS011;70716;50.074;14.496;2023-09-19T00:18:26;1.35;;;0.50;;
81242;SDS011;70716;50.074;14.496;2023-09-19T00:20:57;0.55;;;0.47;;
81242;SDS011;70716;50.074;14.496;2023-09-19T00:23:23;3.58;;;0.88;;
81242;SDS011;70716;50.074;14.496;2023-09-19T00:25:49;1.88;;;0.70;;
81242;SDS011;70716;50.074;14.496;2023-09-19T00:28:16;0.80;;;0.50;;
81242;SDS011;70716;50.074;14.496;2023-09-19T00:30:43;1.27;;;0.60;;
81242;SDS011;70716;50.074;14.496;2023-09-19T00:33:09;0.90;;;0.68;;
81242;SDS011;70716;50.074;14.496;2023-09-19T00:38:02;1.70;;;0.70;;
81242;SDS011;70716;50.074;14.496;2023-09-19T00:40:29;2.38;;;0.70;;
81242;SDS011;70716;50.074;14.496;2023-09-19T00:42:59;0.85;;;0.50;;
81242;SDS011;70716;50.074;14.496;2023-09-19T00:45:27;1.27;;;0.73;;
81242;SDS011;70716;50.074;14.496;2023-09-19T00:47:54;1.85;;;0.73;;
81242;SDS011;70716;50.074;14.496;2023-09-19T00:50:22;0.90;;;0.50;;
81242;SDS011;70716;50.074;14.496;2023-09-19T00:52:50;1.77;;;0.70;;
81242;SDS011;70716;50.074;14.496;2023-09-19T00:55:21;1.25;;;0.60;;
81242;SDS011;70716;50.074;14.496;2023-09-19T00:57:46;1.77;;;0.47;;
81242;SDS011;70716;50.074;14.496;2023-09-19T01:00:14;1.20;;;0.70;;
81242;SDS011;70716;50.074;14.496;2023-09-19T01:02:44;2.35;;;0.57;;
81242;SDS011;70716;50.074;14.496;2023-09-19T01:05:11;0.52;;;0.38;;
81242;SDS011;70716;50.074;14.496;2023-09-19T01:07:40;1.23;;;0.50;;
81242;SDS011;70716;50.074;14.496;2023-09-19T01:10:06;0.57;;;0.50;;
81242;SDS011;70716;50.074;14.496;2023-09-19T01:15:26;0.30;;;0.30;;
81242;SDS011;70716;50.074;14.496;2023-09-19T01:20:55;1.33;;;0.60;;
81242;SDS011;70716;50.074;14.496;2023-09-19T01:32:29;0.40;;;0.30;;
81242;SDS011;70716;50.074;14.496;2023-09-19T01:35:04;0.65;;;0.43;;
81242;SDS011;70716;50.074;14.496;2023-09-19T01:37:30;1.73;;;0.90;;
81242;SDS011;70716;50.074;14.496;2023-09-19T01:40:03;1.85;;;0.75;;
81242;SDS011;70716;50.074;14.496;2023-09-19T01:42:52;0.75;;;0.43;;
81242;SDS011;70716;50.074;14.496;2023-09-19T01:45:43;1.25;;;0.60;;
81242;SDS011;70716;50.074;14.496;2023-09-19T01:51:00;0.65;;;0.47;;
81242;SDS011;70716;50.074;14.496;2023-09-19T01:53:29;1.02;;;0.50;;
81242;SDS011;70716;50.074;14.496;2023-09-19T01:56:04;1.27;;;0.43;;
81242;SDS011;70716;50.074;14.496;2023-09-19T01:58:39;1.60;;;0.65;;
81242;SDS011;70716;50.074;14.496;2023-09-19T02:01:24;0.95;;;0.60;;
81242;SDS011;70716;50.074;14.496;2023-09-19T02:03:51;0.30;;;0.30;;
81242;SDS011;70716;50.074;14.496;2023-09-19T02:06:17;1.70;;;0.43;;
81242;SDS011;70716;50.074;14.496;2023-09-19T02:08:44;0.90;;;0.30;;
81242;SDS011;70716;50.074;14.496;2023-09-19T02:11:10;1.95;;;0.45;;
81242;SDS011;70716;50.074;14.496;2023-09-19T02:13:38;0.63;;;0.50;;
81242;SDS011;70716;50.074;14.496;2023-09-19T02:16:03;1.50;;;0.60;;
81242;SDS011;70716;50.074;14.496;2023-09-19T02:18:32;1.00;;;0.63;;
81242;SDS011;70716;50.074;14.496;2023-09-19T02:21:00;1.77;;;0.40;;
81242;SDS011;70716;50.074;14.496;2023-09-19T02:23:32;2.47;;;0.52;;
81242;SDS011;70716;50.074;14.496;2023-09-19T02:25:59;1.17;;;0.50;;
81242;SDS011;70716;50.074;14.496;2023-09-19T02:28:30;2.65;;;0.77;;
81242;SDS011;70716;50.074;14.496;2023-09-19T02:30:57;0.80;;;0.50;;
81242;SDS011;70716;50.074;14.496;2023-09-19T02:33:23;1.40;;;0.60;;
81242;SDS011;70716;50.074;14.496;2023-09-19T02:35:48;2.20;;;0.50;;
81242;SDS011;70716;50.074;14.496;2023-09-19T02:38:13;0.63;;;0.40;;
81242;SDS011;70716;50.074;14.496;2023-09-19T02:40:43;3.05;;;0.63;;
81242;SDS011;70716;50.074;14.496;2023-09-19T02:43:11;1.05;;;0.52;;
81242;SDS011;70716;50.074;14.496;2023-09-19T02:45:38;0.90;;;0.43;;
81242;SDS011;70716;50.074;14.496;2023-09-19T02:48:04;0.73;;;0.60;;
81242;SDS011;70716;50.074;14.496;2023-09-19T02:50:29;1.05;;;0.50;;
81242;SDS011;70716;50.074;14.496;2023-09-19T02:52:55;1.02;;;0.40;;
81242;SDS011;70716;50.074;14.496;2023-09-19T02:55:20;0.88;;;0.47;;
81242;SDS011;70716;50.074;14.496;2023-09-19T02:57:50;2.40;;;0.52;;
81242;SDS011;70716;50.074;14.496;2023-09-19T03:00:18;1.23;;;0.50;;
81242;SDS011;70716;50.074;14.496;2023-09-19T03:02:50;1.13;;;0.60;;
81242;SDS011;70716;50.074;14.496;2023-09-19T03:05:18;0.77;;;0.55;;
81242;SDS011;70716;50.074;14.496;2023-09-19T03:07:43;1.33;;;0.60;;
81242;SDS011;70716;50.074;14.496;2023-09-19T03:10:13;1.00;;;0.55;;
81242;SDS011;70716;50.074;14.496;2023-09-19T03:12:41;1.10;;;0.40;;
81242;SDS011;70716;50.074;14.496;2023-09-19T03:15:08;1.33;;;0.50;;
81242;SDS011;70716;50.074;14.496;2023-09-19T03:17:34;0.82;;;0.52;;
81242;SDS011;70716;50.074;14.496;2023-09-19T03:20:00;2.58;;;0.50;;
81242;SDS011;70716;50.074;14.496;2023-09-19T03:22:33;0.90;;;0.45;;
81242;SDS011;70716;50.074;14.496;2023-09-19T03:25:01;1.23;;;0.60;;
81242;SDS011;70716;50.074;14.496;2023-09-19T03:27:29;1.60;;;0.70;;
81242;SDS011;70716;50.074;14.496;2023-09-19T03:29:55;1.48;;;0.63;;
81242;SDS011;70716;50.074;14.496;2023-09-19T03:32:20;1.75;;;0.70;;
81242;SDS011;70716;50.074;14.496;2023-09-19T03:34:46;0.95;;;0.40;;
81242;SDS011;70716;50.074;14.496;2023-09-19T03:37:13;1.83;;;0.70;;
81242;SDS011;70716;50.074;14.496;2023-09-19T03:39:38;1.17;;;0.60;;
81242;SDS011;70716;50.074;14.496;2023-09-19T03:42:04;1.83;;;0.50;;
81242;SDS011;70716;50.074;14.496;2023-09-19T03:44:32;0.65;;;0.57;;
81242;SDS011;70716;50.074;14.496;2023-09-19T03:46:57;1.70;;;0.63;;
81242;SDS011;70716;50.074;14.496;2023-09-19T03:49:23;1.13;;;0.50;;
81242;SDS011;70716;50.074;14.496;2023-09-19T03:51:49;1.23;;;0.60;;
81242;SDS011;70716;50.074;14.496;2023-09-19T03:54:15;1.35;;;0.55;;
81242;SDS011;70716;50.074;14.496;2023-09-19T03:56:44;1.38;;;0.47;;
81242;SDS011;70716;50.074;14.496;2023-09-19T03:59:10;1.75;;;0.70;;
81242;SDS011;70716;50.074;14.496;2023-09-19T04:01:38;1.63;;;0.70;;
81242;SDS011;70716;50.074;14.496;2023-09-19T04:04:06;1.67;;;0.73;;
81242;SDS011;70716;50.074;14.496;2023-09-19T04:06:35;0.80;;;0.52;;
81242;SDS011;70716;50.074;14.496;2023-09-19T04:09:04;0.55;;;0.35;;
81242;SDS011;70716;50.074;14.496;2023-09-19T04:11:32;1.55;;;0.77;;
81242;SDS011;70716;50.074;14.496;2023-09-19T04:13:59;1.13;;;0.52;;
81242;SDS011;70716;50.074;14.496;2023-09-19T04:16:24;1.27;;;0.68;;
81242;SDS011;70716;50.074;14.496;2023-09-19T04:18:49;1.30;;;0.57;;
81242;SDS011;70716;50.074;14.496;2023-09-19T04:21:15;1.77;;;0.65;;
81242;SDS011;70716;50.074;14.496;2023-09-19T04:23:41;1.02;;;0.52;;
81242;SDS011;70716;50.074;14.496;2023-09-19T04:26:08;1.40;;;0.77;;
81242;SDS011;70716;50.074;14.496;2023-09-19T04:28:34;0.98;;;0.63;;
81242;SDS011;70716;50.074;14.496;2023-09-19T04:30:59;2.20;;;0.63;;
81242;SDS011;70716;50.074;14.496;2023-09-19T04:33:25;2.17;;;0.65;;
81242;SDS011;70716;50.074;14.496;2023-09-19T04:35:53;3.10;;;0.80;;
81242;SDS011;70716;50.074;14.496;2023-09-19T04:38:19;2.92;;;0.80;;
81242;SDS011;70716;50.074;14.496;2023-09-19T04:40:45;1.15;;;0.55;;
81242;SDS011;70716;50.074;14.496;2023-09-19T04:43:13;2.63;;;0.80;;
81242;SDS011;70716;50.074;14.496;2023-09-19T04:48:06;2.27;;;0.70;;
81242;SDS011;70716;50.074;14.496;2023-09-19T04:50:36;0.80;;;0.70;;
81242;SDS011;70716;50.074;14.496;2023-09-19T04:53:03;1.33;;;0.63;;
81242;SDS011;70716;50.074;14.496;2023-09-19T04:55:29;0.95;;;0.60;;
81242;SDS011;70716;50.074;14.496;2023-09-19T04:57:55;1.20;;;0.80;;
81242;SDS011;70716;50.074;14.496;2023-09-19T05:00:21;2.28;;;0.80;;
81242;SDS011;70716;50.074;14.496;2023-09-19T05:02:52;2.58;;;0.82;;
81242;SDS011;70716;50.074;14.496;2023-09-19T05:05:22;1.65;;;0.95;;
81242;SDS011;70716;50.074;14.496;2023-09-19T05:10:17;0.93;;;0.80;;
81242;SDS011;70716;50.074;14.496;2023-09-19T05:12:43;2.03;;;0.88;;
81242;SDS011;70716;50.074;14.496;2023-09-19T05:15:11;1.65;;;0.90;;
81242;SDS011;70716;50.074;14.496;2023-09-19T05:17:37;1.30;;;0.70;;
81242;SDS011;70716;50.074;14.496;2023-09-19T05:20:14;1.38;;;0.80;;
81242;SDS011;70716;50.074;14.496;2023-09-19T05:22:50;2.58;;;0.70;;
81242;SDS011;70716;50.074;14.496;2023-09-19T05:25:23;0.93;;;0.75;;
81242;SDS011;70716;50.074;14.496;2023-09-19T05:27:53;2.35;;;0.85;;
81242;SDS011;70716;50.074;14.496;2023-09-19T05:30:18;2.08;;;0.85;;
81242;SDS011;70716;50.074;14.496;2023-09-19T05:32:45;2.92;;;0.75;;
81242;SDS011;70716;50.074;14.496;2023-09-19T05:35:12;1.90;;;0.90;;
81242;SDS011;70716;50.074;14.496;2023-09-19T05:37:38;3.05;;;1.25;;
81242;SDS011;70716;50.074;14.496;2023-09-19T05:40:03;1.85;;;0.95;;
81242;SDS011;70716;50.074;14.496;2023-09-19T05:42:35;2.25;;;0.90;;
81242;SDS011;70716;50.074;14.496;2023-09-19T05:45:01;3.33;;;1.10;;
81242;SDS011;70716;50.074;14.496;2023-09-19T05:47:26;3.13;;;1.02;;
81242;SDS011;70716;50.074;14.496;2023-09-19T05:49:52;1.67;;;0.82;;
81242;SDS011;70716;50.074;14.496;2023-09-19T05:52:21;1.60;;;0.80;;
81242;SDS011;70716;50.074;14.496;2023-09-19T05:54:47;2.30;;;1.08;;
81242;SDS011;70716;50.074;14.496;2023-09-19T05:57:12;1.98;;;1.13;;
81242;SDS011;70716;50.074;14.496;2023-09-19T05:59:38;3.60;;;1.13;;
81242;SDS011;70716;50.074;14.496;2023-09-19T06:02:08;3.80;;;1.15;;
81242;SDS011;70716;50.074;14.496;2023-09-19T06:04:34;1.52;;;0.82;;
81242;SDS011;70716;50.074;14.496;2023-09-19T06:07:00;2.80;;;0.95;;
81242;SDS011;70716;50.074;14.496;2023-09-19T06:09:27;1.75;;;0.70;;
81242;SDS011;70716;50.074;14.496;2023-09-19T06:11:53;2.03;;;0.75;;
81242;SDS011;70716;50.074;14.496;2023-09-19T06:14:21;2.42;;;0.95;;
81242;SDS011;70716;50.074;14.496;2023-09-19T06:16:49;3.63;;;0.90;;
81242;SDS011;70716;50.074;14.496;2023-09-19T06:19:15;2.05;;;1.15;;
81242;SDS011;70716;50.074;14.496;2023-09-19T06:21:40;1.48;;;0.75;;
81242;SDS011;70716;50.074;14.496;2023-09-19T06:24:06;2.15;;;0.90;;
81242;SDS011;70716;50.074;14.496;2023-09-19T06:26:34;2.13;;;1.02;;
81242;SDS011;70716;50.074;14.496;2023-09-19T06:29:00;2.00;;;1.02;;
81242;SDS011;70716;50.074;14.496;2023-09-19T06:31:25;2.17;;;1.00;;
81242;SDS011;70716;50.074;14.496;2023-09-19T06:33:53;2.08;;;0.90;;
81242;SDS011;70716;50.074;14.496;2023-09-19T06:36:19;2.70;;;1.33;;
81242;SDS011;70716;50.074;14.496;2023-09-19T06:38:45;4.00;;;1.20;;
81242;SDS011;70716;50.074;14.496;2023-09-19T06:41:10;3.00;;;0.98;;
81242;SDS011;70716;50.074;14.496;2023-09-19T06:43:36;2.13;;;0.93;;
81242;SDS011;70716;50.074;14.496;2023-09-19T06:46:01;2.97;;;1.00;;
81242;SDS011;70716;50.074;14.496;2023-09-19T06:48:27;3.08;;;1.08;;
81242;SDS011;70716;50.074;14.496;2023-09-19T06:50:54;2.58;;;1.35;;
81242;SDS011;70716;50.074;14.496;2023-09-19T06:53:23;2.33;;;0.85;;
81242;SDS011;70716;50.074;14.496;2023-09-19T06:55:55;4.00;;;1.30;;
81242;SDS011;70716;50.074;14.496;2023-09-19T06:58:21;2.10;;;0.98;;
81242;SDS011;70716;50.074;14.496;2023-09-19T07:00:46;2.97;;;1.00;;
81242;SDS011;70716;50.074;14.496;2023-09-19T07:03:13;2.83;;;1.10;;
81242;SDS011;70716;50.074;14.496;2023-09-19T07:05:42;2.92;;;1.20;;
81242;SDS011;70716;50.074;14.496;2023-09-19T07:08:08;3.33;;;1.10;;
81242;SDS011;70716;50.074;14.496;2023-09-19T07:10:37;2.55;;;1.00;;
81242;SDS011;70716;50.074;14.496;2023-09-19T07:13:06;2.08;;;1.00;;
81242;SDS011;70716;50.074;14.496;2023-09-19T07:15:36;3.17;;;1.33;;
81242;SDS011;70716;50.074;14.496;2023-09-19T07:18:11;2.13;;;0.85;;
81242;SDS011;70716;50.074;14.496;2023-09-19T07:20:39;2.38;;;1.00;;
81242;SDS011;70716;50.074;14.496;2023-09-19T07:23:08;2.45;;;0.88;;
81242;SDS011;70716;50.074;14.496;2023-09-19T07:25:34;3.85;;;1.10;;
81242;SDS011;70716;50.074;14.496;2023-09-19T07:28:00;2.08;;;1.02;;
81242;SDS011;70716;50.074;14.496;2023-09-19T07:30:26;1.33;;;0.77;;
81242;SDS011;70716;50.074;14.496;2023-09-19T07:32:52;2.42;;;0.85;;
81242;SDS011;70716;50.074;14.496;2023-09-19T07:35:18;3.08;;;0.93;;
81242;SDS011;70716;50.074;14.496;2023-09-19T07:37:47;2.05;;;0.85;;
81242;SDS011;70716;50.074;14.496;2023-09-19T07:40:18;2.88;;;1.00;;
81242;SDS011;70716;50.074;14.496;2023-09-19T07:42:45;2.28;;;0.98;;
81242;SDS011;70716;50.074;14.496;2023-09-19T07:45:14;3.17;;;1.00;;
81242;SDS011;70716;50.074;14.496;2023-09-19T07:47:45;2.28;;;1.00;;
81242;SDS011;70716;50.074;14.496;2023-09-19T07:50:14;2.22;;;1.13;;
81242;SDS011;70716;50.074;14.496;2023-09-19T07:52:49;1.90;;;1.00;;
81242;SDS011;70716;50.074;14.496;2023-09-19T07:55:21;2.33;;;1.00;;
81242;SDS011;70716;50.074;14.496;2023-09-19T08:05:14;1.73;;;0.85;;
81242;SDS011;70716;50.074;14.496;2023-09-19T08:07:44;3.00;;;0.98;;
81242;SDS011;70716;50.074;14.496;2023-09-19T08:10:17;1.92;;;0.95;;
81242;SDS011;70716;50.074;14.496;2023-09-19T08:12:44;1.48;;;0.80;;
81242;SDS011;70716;50.074;14.496;2023-09-19T08:15:13;3.70;;;1.10;;
81242;SDS011;70716;50.074;14.496;2023-09-19T08:17:47;2.75;;;0.93;;
81242;SDS011;70716;50.074;14.496;2023-09-19T08:20:13;2.28;;;1.05;;
81242;SDS011;70716;50.074;14.496;2023-09-19T08:22:51;1.50;;;0.90;;
81242;SDS011;70716;50.074;14.496;2023-09-19T08:25:19;1.13;;;0.80;;
81242;SDS011;70716;50.074;14.496;2023-09-19T08:27:50;1.95;;;1.00;;
81242;SDS011;70716;50.074;14.496;2023-09-19T08:30:19;1.80;;;0.95;;
81242;SDS011;70716;50.074;14.496;2023-09-19T08:32:49;2.45;;;0.73;;
81242;SDS011;70716;50.074;14.496;2023-09-19T08:35:16;2.70;;;0.90;;
81242;SDS011;70716;50.074;14.496;2023-09-19T08:37:42;2.45;;;1.02;;
81242;SDS011;70716;50.074;14.496;2023-09-19T08:40:10;2.08;;;0.90;;
81242;SDS011;70716;50.074;14.496;2023-09-19T08:42:51;1.67;;;0.77;;
81242;SDS011;70716;50.074;14.496;2023-09-19T08:45:19;1.52;;;0.80;;
81242;SDS011;70716;50.074;14.496;2023-09-19T08:48:11;1.77;;;0.90;;
81242;SDS011;70716;50.074;14.496;2023-09-19T08:50:49;1.83;;;0.80;;
81242;SDS011;70716;50.074;14.496;2023-09-19T08:53:23;2.92;;;1.15;;
81242;SDS011;70716;50.074;14.496;2023-09-19T08:55:55;2.88;;;0.88;;
81242;SDS011;70716;50.074;14.496;2023-09-19T08:58:23;2.00;;;1.00;;
81242;SDS011;70716;50.074;14.496;2023-09-19T09:03:21;1.88;;;0.95;;
81242;SDS011;70716;50.074;14.496;2023-09-19T09:05:51;2.55;;;1.05;;
81242;SDS011;70716;50.074;14.496;2023-09-19T09:08:20;2.28;;;0.88;;
81242;SDS011;70716;50.074;14.496;2023-09-19T09:13:15;1.70;;;0.80;;
81242;SDS011;70716;50.074;14.496;2023-09-19T09:15:42;1.52;;;0.73;;
81242;SDS011;70716;50.074;14.496;2023-09-19T09:18:12;1.52;;;0.73;;
81242;SDS011;70716;50.074;14.496;2023-09-19T09:20:38;1.95;;;0.90;;
81242;SDS011;70716;50.074;14.496;2023-09-19T09:23:04;1.33;;;0.70;;
81242;SDS011;70716;50.074;14.496;2023-09-19T09:28:29;0.85;;;0.75;;
81242;SDS011;70716;50.074;14.496;2023-09-19T09:30:56;2.13;;;0.90;;
81242;SDS011;70716;50.074;14.496;2023-09-19T09:33:23;1.73;;;1.00;;
81242;SDS011;70716;50.074;14.496;2023-09-19T09:35:57;1.70;;;0.95;;
81242;SDS011;70716;50.074;14.496;2023-09-19T09:38:44;3.53;;;0.98;;
81242;SDS011;70716;50.074;14.496;2023-09-19T09:41:21;1.98;;;0.77;;
81242;SDS011;70716;50.074;14.496;2023-09-19T09:44:11;2.25;;;0.90;;
81242;SDS011;70716;50.074;14.496;2023-09-19T09:46:45;1.48;;;0.80;;
81242;SDS011;70716;50.074;14.496;2023-09-19T09:49:23;2.75;;;0.70;;
81242;SDS011;70716;50.074;14.496;2023-09-19T09:52:05;2.85;;;1.00;;
81242;SDS011;70716;50.074;14.496;2023-09-19T09:54:41;2.08;;;0.98;;
81242;SDS011;70716;50.074;14.496;2023-09-19T09:57:30;2.45;;;0.73;;
81242;SDS011;70716;50.074;14.496;2023-09-19T09:59:56;0.93;;;0.60;;
81242;SDS011;70716;50.074;14.496;2023-09-19T10:02:36;1.58;;;0.82;;
81242;SDS011;70716;50.074;14.496;2023-09-19T10:05:11;1.38;;;0.80;;
81242;SDS011;70716;50.074;14.496;2023-09-19T10:07:41;2.08;;;0.98;;
81242;SDS011;70716;50.074;14.496;2023-09-19T10:10:29;1.55;;;0.70;;
81242;SDS011;70716;50.074;14.496;2023-09-19T10:12:54;1.98;;;0.98;;
81242;SDS011;70716;50.074;14.496;2023-09-19T10:15:28;2.50;;;1.10;;
81242;SDS011;70716;50.074;14.496;2023-09-19T10:17:57;2.97;;;0.80;;
81242;SDS011;70716;50.074;14.496;2023-09-19T10:20:26;1.20;;;0.70;;
81242;SDS011;70716;50.074;14.496;2023-09-19T10:23:22;2.47;;;0.95;;
81242;SDS011;70716;50.074;14.496;2023-09-19T10:25:52;2.13;;;0.93;;
81242;SDS011;70716;50.074;14.496;2023-09-19T10:28:18;1.98;;;0.93;;
81242;SDS011;70716;50.074;14.496;2023-09-19T10:30:49;1.83;;;0.88;;
81242;SDS011;70716;50.074;14.496;2023-09-19T10:33:21;3.50;;;1.02;;
81242;SDS011;70716;50.074;14.496;2023-09-19T10:35:52;1.10;;;0.70;;
81242;SDS011;70716;50.074;14.496;2023-09-19T10:38:27;1.13;;;0.95;;
81242;SDS011;70716;50.074;14.496;2023-09-19T10:40:54;0.85;;;0.70;;
81242;SDS011;70716;50.074;14.496;2023-09-19T10:43:34;1.75;;;0.90;;
81242;SDS011;70716;50.074;14.496;2023-09-19T10:46:07;1.48;;;0.70;;
81242;SDS011;70716;50.074;14.496;2023-09-19T10:48:38;0.93;;;0.70;;
81242;SDS011;70716;50.074;14.496;2023-09-19T10:51:18;1.33;;;0.93;;
81242;SDS011;70716;50.074;14.496;2023-09-19T10:53:56;0.98;;;0.70;;
81242;SDS011;70716;50.074;14.496;2023-09-19T10:56:33;1.63;;;1.00;;
81242;SDS011;70716;50.074;14.496;2023-09-19T10:59:07;2.13;;;0.90;;
81242;SDS011;70716;50.074;14.496;2023-09-19T11:02:35;2.58;;;1.10;;
81242;SDS011;70716;50.074;14.496;2023-09-19T11:04:42;2.17;;;0.90;;
81242;SDS011;70716;50.074;14.496;2023-09-19T11:07:10;2.00;;;0.75;;
81242;SDS011;70716;50.074;14.496;2023-09-19T11:09:53;1.65;;;0.80;;
81242;SDS011;70716;50.074;14.496;2023-09-19T11:15:06;2.10;;;0.98;;
81242;SDS011;70716;50.074;14.496;2023-09-19T11:17:39;3.03;;;1.15;;
81242;SDS011;70716;50.074;14.496;2023-09-19T11:30:41;1.25;;;0.90;;
81242;SDS011;70716;50.074;14.496;2023-09-19T11:36:01;2.60;;;0.90;;
81242;SDS011;70716;50.074;14.496;2023-09-19T11:49:16;2.97;;;1.10;;
81242;SDS011;70716;50.074;14.496;2023-09-19T11:51:46;2.72;;;0.77;;
81242;SDS011;70716;50.074;14.496;2023-09-19T11:54:12;3.05;;;1.00;;
81242;SDS011;70716;50.074;14.496;2023-09-19T11:56:48;2.55;;;0.90;;
81242;SDS011;70716;50.074;14.496;2023-09-19T12:02:01;2.35;;;0.70;;
81242;SDS011;70716;50.074;14.496;2023-09-19T12:04:45;1.58;;;0.77;;
81242;SDS011;70716;50.074;14.496;2023-09-19T12:07:19;1.92;;;0.77;;
81242;SDS011;70716;50.074;14.496;2023-09-19T12:09:49;1.80;;;0.77;;
81242;SDS011;70716;50.074;14.496;2023-09-19T12:12:27;1.48;;;0.80;;
81242;SDS011;70716;50.074;14.496;2023-09-19T12:14:52;1.63;;;0.63;;
81242;SDS011;70716;50.074;14.496;2023-09-19T12:17:22;0.90;;;0.60;;
81242;SDS011;70716;50.074;14.496;2023-09-19T12:19:52;3.30;;;1.10;;
81242;SDS011;70716;50.074;14.496;2023-09-19T12:22:22;1.60;;;0.80;;
81242;SDS011;70716;50.074;14.496;2023-09-19T12:24:53;3.75;;;0.98;;
81242;SDS011;70716;50.074;14.496;2023-09-19T12:27:24;2.33;;;0.80;;
81242;SDS011;70716;50.074;14.496;2023-09-19T12:29:52;1.30;;;0.90;;
81242;SDS011;70716;50.074;14.496;2023-09-19T12:32:34;2.28;;;0.80;;
81242;SDS011;70716;50.074;14.496;2023-09-19T12:35:01;2.38;;;0.70;;
81242;SDS011;70716;50.074;14.496;2023-09-19T12:37:44;1.15;;;0.73;;
81242;SDS011;70716;50.074;14.496;2023-09-19T12:40:13;1.35;;;0.80;;
81242;SDS011;70716;50.074;14.496;2023-09-19T12:42:47;1.45;;;0.73;;
81242;SDS011;70716;50.074;14.496;2023-09-19T12:45:14;2.05;;;0.90;;
81242;SDS011;70716;50.074;14.496;2023-09-19T12:51:34;2.20;;;0.82;;
81242;SDS011;70716;50.074;14.496;2023-09-19T12:53:41;1.58;;;0.60;;
81242;SDS011;70716;50.074;14.496;2023-09-19T12:56:15;1.85;;;0.70;;
81242;SDS011;70716;50.074;14.496;2023-09-19T12:58:57;0.60;;;0.60;;
81242;SDS011;70716;50.074;14.496;2023-09-19T13:01:28;2.50;;;0.80;;
81242;SDS011;70716;50.074;14.496;2023-09-19T13:06:55;1.13;;;0.63;;
81242;SDS011;70716;50.074;14.496;2023-09-19T13:09:25;1.30;;;0.90;;
81242;SDS011;70716;50.074;14.496;2023-09-19T13:12:03;1.58;;;0.73;;
81242;SDS011;70716;50.074;14.496;2023-09-19T13:14:34;2.03;;;0.80;;
81242;SDS011;70716;50.074;14.496;2023-09-19T13:19:44;1.52;;;0.70;;
81242;SDS011;70716;50.074;14.496;2023-09-19T13:25:04;1.42;;;0.70;;
81242;SDS011;70716;50.074;14.496;2023-09-19T13:27:52;1.23;;;0.70;;
81242;SDS011;70716;50.074;14.496;2023-09-19T13:30:19;1.00;;;0.70;;
81242;SDS011;70716;50.074;14.496;2023-09-19T13:32:46;1.50;;;0.68;;
81242;SDS011;70716;50.074;14.496;2023-09-19T13:35:13;1.20;;;0.70;;
81242;SDS011;70716;50.074;14.496;2023-09-19T13:37:40;3.17;;;1.00;;
81242;SDS011;70716;50.074;14.496;2023-09-19T13:40:12;1.92;;;1.00;;
81242;SDS011;70716;50.074;14.496;2023-09-19T13:42:43;1.17;;;0.80;;
81242;SDS011;70716;50.074;14.496;2023-09-19T13:45:08;1.92;;;0.80;;
81242;SDS011;70716;50.074;14.496;2023-09-19T13:47:37;1.70;;;0.68;;
81242;SDS011;70716;50.074;14.496;2023-09-19T13:50:03;2.72;;;0.80;;
81242;SDS011;70716;50.074;14.496;2023-09-19T13:52:32;1.52;;;0.70;;
81242;SDS011;70716;50.074;14.496;2023-09-19T13:54:58;1.10;;;0.60;;
81242;SDS011;70716;50.074;14.496;2023-09-19T13:57:24;1.35;;;0.65;;
81242;SDS011;70716;50.074;14.496;2023-09-19T13:59:51;1.88;;;0.52;;
81242;SDS011;70716;50.074;14.496;2023-09-19T14:02:16;3.08;;;0.80;;
81242;SDS011;70716;50.074;14.496;2023-09-19T14:04:44;1.63;;;0.60;;
81242;SDS011;70716;50.074;14.496;2023-09-19T14:07:10;1.08;;;0.45;;
81242;SDS011;70716;50.074;14.496;2023-09-19T14:09:37;1.17;;;0.60;;
81242;SDS011;70716;50.074;14.496;2023-09-19T14:14:29;1.20;;;0.55;;
81242;SDS011;70716;50.074;14.496;2023-09-19T14:16:57;0.50;;;0.45;;
81242;SDS011;70716;50.074;14.496;2023-09-19T14:19:25;2.35;;;0.80;;
81242;SDS011;70716;50.074;14.496;2023-09-19T14:21:54;1.23;;;0.80;;
81242;SDS011;70716;50.074;14.496;2023-09-19T14:24:22;1.83;;;0.70;;
81242;SDS011;70716;50.074;14.496;2023-09-19T14:26:51;5.10;;;1.70;;
81242;SDS011;70716;50.074;14.496;2023-09-19T14:29:16;1.60;;;0.75;;
81242;SDS011;70716;50.074;14.496;2023-09-19T14:31:42;2.22;;;0.88;;
81242;SDS011;70716;50.074;14.496;2023-09-19T14:34:08;0.73;;;0.65;;
81242;SDS011;70716;50.074;14.496;2023-09-19T14:36:37;1.58;;;0.75;;
81242;SDS011;70716;50.074;14.496;2023-09-19T14:39:04;1.98;;;0.70;;
81242;SDS011;70716;50.074;14.496;2023-09-19T14:41:34;2.10;;;1.00;;
81242;SDS011;70716;50.074;14.496;2023-09-19T14:44:01;1.00;;;0.55;;
81242;SDS011;70716;50.074;14.496;2023-09-19T14:46:30;1.45;;;0.60;;
81242;SDS011;70716;50.074;14.496;2023-09-19T14:48:56;0.93;;;0.65;;
81242;SDS011;70716;50.074;14.496;2023-09-19T14:51:25;1.50;;;0.73;;
81242;SDS011;70716;50.074;14.496;2023-09-19T14:53:50;3.47;;;1.00;;
81242;SDS011;70716;50.074;14.496;2023-09-19T14:56:18;3.13;;;1.00;;
81242;SDS011;70716;50.074;14.496;2023-09-19T14:58:47;1.85;;;0.98;;
81242;SDS011;70716;50.074;14.496;2023-09-19T15:01:13;1.63;;;0.90;;
81242;SDS011;70716;50.074;14.496;2023-09-19T15:03:40;3.50;;;1.00;;
81242;SDS011;70716;50.074;14.496;2023-09-19T15:06:08;1.90;;;0.85;;
81242;SDS011;70716;50.074;14.496;2023-09-19T15:08:41;2.95;;;0.98;;
81242;SDS011;70716;50.074;14.496;2023-09-19T15:11:14;3.53;;;1.38;;
81242;SDS011;70716;50.074;14.496;2023-09-19T15:13:42;3.58;;;1.58;;
81242;SDS011;70716;50.074;14.496;2023-09-19T15:16:08;5.63;;;2.03;;
81242;SDS011;70716;50.074;14.496;2023-09-19T15:18:35;2.72;;;1.00;;
81242;SDS011;70716;50.074;14.496;2023-09-19T15:23:35;12.23;;;2.63;;
81242;SDS011;70716;50.074;14.496;2023-09-19T15:26:05;9.35;;;2.08;;
81242;SDS011;70716;50.074;14.496;2023-09-19T15:28:32;5.43;;;1.00;;
81242;SDS011;70716;50.074;14.496;2023-09-19T15:31:03;3.63;;;1.10;;
81242;SDS011;70716;50.074;14.496;2023-09-19T15:33:32;7.88;;;1.70;;
81242;SDS011;70716;50.074;14.496;2023-09-19T15:36:08;2.90;;;1.25;;
81242;SDS011;70716;50.074;14.496;2023-09-19T15:41:39;2.17;;;1.08;;
81242;SDS011;70716;50.074;14.496;2023-09-19T15:44:12;2.63;;;1.02;;
81242;SDS011;70716;50.074;14.496;2023-09-19T15:46:42;2.92;;;0.90;;
81242;SDS011;70716;50.074;14.496;2023-09-19T15:49:08;1.25;;;0.75;;
81242;SDS011;70716;50.074;14.496;2023-09-19T15:51:34;2.17;;;1.00;;
81242;SDS011;70716;50.074;14.496;2023-09-19T15:54:24;1.23;;;0.60;;
81242;SDS011;70716;50.074;14.496;2023-09-19T15:56:53;1.00;;;0.60;;
81242;SDS011;70716;50.074;14.496;2023-09-19T15:59:20;1.40;;;0.63;;
81242;SDS011;70716;50.074;14.496;2023-09-19T16:01:45;1.83;;;0.70;;
81242;SDS011;70716;50.074;14.496;2023-09-19T16:04:11;1.23;;;0.52;;
81242;SDS011;70716;50.074;14.496;2023-09-19T16:06:41;2.35;;;0.85;;
81242;SDS011;70716;50.074;14.496;2023-09-19T16:09:06;1.42;;;0.80;;
81242;SDS011;70716;50.074;14.496;2023-09-19T16:11:33;1.38;;;0.70;;
81242;SDS011;70716;50.074;14.496;2023-09-19T16:14:05;2.15;;;0.60;;
81242;SDS011;70716;50.074;14.496;2023-09-19T16:16:31;3.47;;;0.90;;